ルレオ の空港の天気 - METARとTAF

Lulea / Kallax ( ESPA / LLA ) - スウェーデン ルレオ
飛行場実況気象(Metar)
観測時間11/30 17:20 CET (11/30 16:20 UTC)
風向・風速南東 1m/s
視程2000m
天気現象弱い雪
全天を覆う雲 鉛直視程 400m
気温-1℃
湿度100%
気圧1035hPa
METARESPA 301620Z 14001KT 2000 R14/P2000N R32/1100N -SN VV013 M01/M01 Q1035
過去の天気等 Google飛行場航空写真 Wunderground天気予報

過去48時間のMETAR

飛行場予報(TAF)
発表時間: 11/30 16:28 CET (11/30 15:28 UTC)
予報対象時間: 30日16時 CET ~ 1日1時 CET
風向・風速南東 2m/s
視程8000m
天気現象弱い雪
全天の8割程度の雲 雲底高度 240m
30日16時 CET ~ 1日1時 CET に一時的に
視程400m
天気現象氷霧
全天を覆う雲 鉛直視程 60m
TAF AMD ESPA 301528Z 3015/3024 14003KT 8000 -SN BKN008
TEMPO 3015/3024 0400 FZFG VV002